UAL1301 KORD-KICT
Flight info
| Callsign | UAL1301 |
|---|---|
| Flight time | 1h 30m |
| Altitude | 38000 |
| Route | DCT PEKUE DCT PIGGG DCT QUANE DCT CARET DCT ROEZZ DCT MCI DCT CASSO DCT ICT DCT |
| Aircraft | B38M/M-VGDW/C |
Departure
| Time | 2026-04-26 16:40 |
|---|---|
| Airport | Chicago O'Hare International Airport (KORD) |
Arrival
| Time | 2026-04-26 18:10 |
|---|---|
| Airport | Wichita Dwight D. Eisenhower National Airport (KICT) |
| Time | Latitude | Longitude | Altitude | Speed | Heading |
|---|---|---|---|---|---|
| 2026-04-26 15:40 | 41.97832 | -87.91135 | 673 ft | 0 kts | 107° |
| 2026-04-26 16:19 | 41.97838 | -87.91174 | 673 ft | 4 kts | 85° |
| 2026-04-26 16:19 | 41.97831 | -87.91209 | 670 ft | 4 kts | 66° |
| 2026-04-26 16:19 | 41.97818 | -87.91258 | 672 ft | 4 kts | 82° |
| 2026-04-26 16:20 | 41.97825 | -87.91297 | 668 ft | 4 kts | 148° |
| 2026-04-26 16:20 | 41.97838 | -87.91302 | 670 ft | 0 kts | 178° |
| 2026-04-26 16:29 | 41.97819 | -87.91301 | 673 ft | 8 kts | 174° |
| 2026-04-26 16:29 | 41.97789 | -87.91296 | 673 ft | 1 kts | 172° |
| 2026-04-26 16:29 | 41.97777 | -87.91296 | 673 ft | 7 kts | 186° |
| 2026-04-26 16:30 | 41.97756 | -87.91336 | 673 ft | 7 kts | 279° |
| 2026-04-26 16:30 | 41.97724 | -87.91384 | 671 ft | 9 kts | 170° |
| 2026-04-26 16:30 | 41.97650 | -87.91345 | 671 ft | 12 kts | 161° |
| 2026-04-26 16:30 | 41.97618 | -87.91347 | 673 ft | 0 kts | 206° |
| 2026-04-26 16:31 | 41.97614 | -87.91351 | 673 ft | 3 kts | 209° |
| 2026-04-26 16:31 | 41.97608 | -87.91354 | 673 ft | 0 kts | 209° |
| 2026-04-26 16:31 | 41.97604 | -87.91359 | 673 ft | 4 kts | 219° |
| 2026-04-26 16:32 | 41.97587 | -87.91384 | 673 ft | 0 kts | 228° |
| 2026-04-26 16:33 | 41.97581 | -87.91459 | 673 ft | 16 kts | 272° |
| 2026-04-26 16:33 | 41.97592 | -87.91610 | 673 ft | 22 kts | 282° |
| 2026-04-26 16:33 | 41.97688 | -87.91764 | 673 ft | 27 kts | 320° |
| 2026-04-26 16:33 | 41.97825 | -87.91920 | 673 ft | 21 kts | 318° |
| 2026-04-26 16:34 | 41.97908 | -87.92019 | 672 ft | 14 kts | 321° |
| 2026-04-26 16:34 | 41.97987 | -87.92156 | 673 ft | 18 kts | 282° |
| 2026-04-26 16:34 | 41.97985 | -87.92364 | 673 ft | 26 kts | 269° |
| 2026-04-26 16:34 | 41.97991 | -87.92590 | 673 ft | 21 kts | 272° |
| 2026-04-26 16:35 | 41.97986 | -87.92751 | 673 ft | 19 kts | 246° |
| 2026-04-26 16:35 | 41.97858 | -87.92791 | 673 ft | 22 kts | 180° |
| 2026-04-26 16:35 | 41.97689 | -87.92789 | 673 ft | 23 kts | 179° |
| 2026-04-26 16:35 | 41.97519 | -87.92790 | 673 ft | 25 kts | 181° |
| 2026-04-26 16:36 | 41.97343 | -87.92793 | 673 ft | 24 kts | 181° |
| 2026-04-26 16:36 | 41.97222 | -87.92791 | 673 ft | 9 kts | 179° |
| 2026-04-26 16:36 | 41.97163 | -87.92812 | 673 ft | 9 kts | 238° |
| 2026-04-26 16:36 | 41.97155 | -87.92899 | 673 ft | 10 kts | 270° |
| 2026-04-26 16:37 | 41.97155 | -87.92963 | 673 ft | 0 kts | 269° |
| 2026-04-26 16:37 | 41.97155 | -87.92968 | 673 ft | 1 kts | 269° |
| 2026-04-26 16:37 | 41.97154 | -87.92990 | 673 ft | 3 kts | 271° |
| 2026-04-26 16:37 | 41.97155 | -87.93017 | 673 ft | 5 kts | 271° |
| 2026-04-26 16:38 | 41.97150 | -87.93091 | 673 ft | 7 kts | 249° |
| 2026-04-26 16:38 | 41.97109 | -87.93124 | 674 ft | 7 kts | 194° |
| 2026-04-26 16:38 | 41.97057 | -87.93133 | 675 ft | 8 kts | 183° |
| 2026-04-26 16:38 | 41.97005 | -87.93135 | 677 ft | 7 kts | 182° |
| 2026-04-26 16:39 | 41.96953 | -87.93136 | 679 ft | 10 kts | 180° |
| 2026-04-26 16:39 | 41.96902 | -87.93051 | 680 ft | 19 kts | 82° |
| 2026-04-26 16:39 | 41.96906 | -87.92699 | 676 ft | 72 kts | 90° |
| 2026-04-26 16:39 | 41.96906 | -87.91678 | 677 ft | 144 kts | 89° |
| 2026-04-26 16:40 | 41.96883 | -87.90109 | 1037 ft | 181 kts | 90° |
| 2026-04-26 16:40 | 41.96695 | -87.88412 | 2059 ft | 186 kts | 117° |
| 2026-04-26 16:40 | 41.95778 | -87.87319 | 3150 ft | 182 kts | 160° |
| 2026-04-26 16:40 | 41.94473 | -87.87368 | 3779 ft | 203 kts | 199° |
| 2026-04-26 16:41 | 41.93363 | -87.88692 | 4087 ft | 232 kts | 238° |
| 2026-04-26 16:41 | 41.93081 | -87.90882 | 4095 ft | 249 kts | 280° |
| 2026-04-26 16:41 | 41.93877 | -87.92936 | 4175 ft | 256 kts | 308° |
| 2026-04-26 16:41 | 41.94894 | -87.94995 | 4246 ft | 273 kts | 290° |
| 2026-04-26 16:42 | 41.95207 | -87.97462 | 5171 ft | 269 kts | 265° |
| 2026-04-26 16:42 | 41.94956 | -87.99994 | 6003 ft | 277 kts | 256° |
| 2026-04-26 16:42 | 41.94563 | -88.02526 | 7046 ft | 279 kts | 255° |
| 2026-04-26 16:42 | 41.94129 | -88.05083 | 8019 ft | 281 kts | 254° |
| 2026-04-26 16:43 | 41.93676 | -88.07647 | 8985 ft | 284 kts | 253° |
| 2026-04-26 16:43 | 41.93205 | -88.10235 | 9973 ft | 286 kts | 253° |
| 2026-04-26 16:43 | 41.92717 | -88.12864 | 10653 ft | 299 kts | 254° |
| 2026-04-26 16:43 | 41.92193 | -88.15659 | 11068 ft | 319 kts | 253° |
| 2026-04-26 16:44 | 41.91634 | -88.18621 | 11562 ft | 334 kts | 253° |
| 2026-04-26 16:44 | 41.91057 | -88.21671 | 12311 ft | 338 kts | 253° |
| 2026-04-26 16:44 | 41.90474 | -88.24743 | 13171 ft | 341 kts | 253° |
| 2026-04-26 16:44 | 41.89885 | -88.27842 | 13956 ft | 345 kts | 253° |
| 2026-04-26 16:45 | 41.89287 | -88.30979 | 14677 ft | 348 kts | 253° |
| 2026-04-26 16:45 | 41.88890 | -88.33064 | 15152 ft | 350 kts | 253° |
| 2026-04-26 16:45 | 41.88283 | -88.36244 | 15862 ft | 352 kts | 254° |
| 2026-04-26 16:45 | 41.87671 | -88.39439 | 16560 ft | 355 kts | 254° |
| 2026-04-26 16:46 | 41.87055 | -88.42653 | 17223 ft | 358 kts | 254° |
| 2026-04-26 16:46 | 41.86432 | -88.45898 | 17894 ft | 361 kts | 254° |
| 2026-04-26 16:46 | 41.85804 | -88.49165 | 18568 ft | 362 kts | 254° |
| 2026-04-26 16:46 | 41.85174 | -88.52437 | 19183 ft | 363 kts | 255° |
| 2026-04-26 16:47 | 41.84538 | -88.55735 | 19713 ft | 367 kts | 255° |
| 2026-04-26 16:47 | 41.83896 | -88.59056 | 20258 ft | 370 kts | 255° |
| 2026-04-26 16:47 | 41.83248 | -88.62405 | 20803 ft | 373 kts | 255° |
| 2026-04-26 16:47 | 41.82593 | -88.65782 | 21329 ft | 376 kts | 255° |
| 2026-04-26 16:48 | 41.81931 | -88.69186 | 21848 ft | 379 kts | 255° |
| 2026-04-26 16:48 | 41.81264 | -88.72615 | 22365 ft | 382 kts | 256° |
| 2026-04-26 16:48 | 41.80591 | -88.76069 | 22872 ft | 384 kts | 256° |
| 2026-04-26 16:48 | 41.79914 | -88.79542 | 23366 ft | 387 kts | 256° |
| 2026-04-26 16:49 | 41.79418 | -88.83109 | 23827 ft | 390 kts | 261° |
| 2026-04-26 16:49 | 41.78983 | -88.86699 | 24247 ft | 392 kts | 261° |
| 2026-04-26 16:49 | 41.78531 | -88.90290 | 24810 ft | 390 kts | 261° |
| 2026-04-26 16:49 | 41.78069 | -88.93886 | 25186 ft | 393 kts | 261° |
| 2026-04-26 16:50 | 41.77599 | -88.97498 | 25587 ft | 395 kts | 261° |
| 2026-04-26 16:50 | 41.77125 | -89.01132 | 25981 ft | 397 kts | 261° |
| 2026-04-26 16:50 | 41.76644 | -89.04796 | 26327 ft | 400 kts | 261° |
| 2026-04-26 16:50 | 41.76160 | -89.08480 | 26726 ft | 403 kts | 261° |
| 2026-04-26 16:51 | 41.75673 | -89.12176 | 27119 ft | 404 kts | 261° |
| 2026-04-26 16:51 | 41.75097 | -89.15870 | 27472 ft | 408 kts | 252° |
| 2026-04-26 16:51 | 41.73920 | -89.19332 | 27888 ft | 409 kts | 246° |
| 2026-04-26 16:51 | 41.72700 | -89.22741 | 28186 ft | 413 kts | 246° |
| 2026-04-26 16:52 | 41.71446 | -89.26208 | 28580 ft | 414 kts | 246° |
| 2026-04-26 16:52 | 41.70592 | -89.28546 | 28887 ft | 414 kts | 246° |
| 2026-04-26 16:52 | 41.68904 | -89.33135 | 29317 ft | 417 kts | 246° |
| 2026-04-26 16:52 | 41.67620 | -89.36614 | 29662 ft | 419 kts | 246° |
| 2026-04-26 16:53 | 41.66325 | -89.40117 | 29998 ft | 421 kts | 246° |
| 2026-04-26 16:53 | 41.65023 | -89.43635 | 30308 ft | 423 kts | 246° |
| 2026-04-26 16:53 | 41.63714 | -89.47167 | 30597 ft | 425 kts | 246° |
| 2026-04-26 16:53 | 41.62399 | -89.50709 | 30882 ft | 426 kts | 246° |
| 2026-04-26 16:54 | 41.61080 | -89.54260 | 31163 ft | 428 kts | 246° |
| 2026-04-26 16:54 | 41.59753 | -89.57826 | 31450 ft | 429 kts | 246° |
| 2026-04-26 16:54 | 41.58426 | -89.61391 | 31827 ft | 428 kts | 246° |
| 2026-04-26 16:54 | 41.57102 | -89.64941 | 32236 ft | 426 kts | 246° |
| 2026-04-26 16:55 | 41.55784 | -89.68472 | 32604 ft | 425 kts | 246° |
| 2026-04-26 16:55 | 41.54465 | -89.71999 | 32953 ft | 424 kts | 246° |
| 2026-04-26 16:55 | 41.53074 | -89.75471 | 33318 ft | 424 kts | 243° |
| 2026-04-26 16:55 | 41.51641 | -89.78906 | 33695 ft | 423 kts | 244° |
| 2026-04-26 16:56 | 41.48812 | -89.85746 | 34396 ft | 420 kts | 244° |
| 2026-04-26 16:56 | 41.47402 | -89.89157 | 34708 ft | 418 kts | 244° |
| 2026-04-26 16:56 | 41.46000 | -89.92544 | 35018 ft | 417 kts | 244° |
| 2026-04-26 16:57 | 41.44601 | -89.95920 | 35336 ft | 416 kts | 244° |
| 2026-04-26 16:57 | 41.43208 | -89.99281 | 35646 ft | 414 kts | 244° |
| 2026-04-26 16:57 | 41.40433 | -90.05960 | 36285 ft | 410 kts | 244° |
| 2026-04-26 16:58 | 41.39055 | -90.09270 | 36566 ft | 408 kts | 244° |
| 2026-04-26 16:58 | 41.38143 | -90.11460 | 36738 ft | 407 kts | 244° |
| 2026-04-26 16:58 | 41.34935 | -90.19148 | 37318 ft | 405 kts | 244° |
| 2026-04-26 16:59 | 41.33571 | -90.22413 | 37537 ft | 404 kts | 244° |
| 2026-04-26 16:59 | 41.30842 | -90.28931 | 37977 ft | 402 kts | 244° |
| 2026-04-26 17:00 | 41.28152 | -90.35342 | 38051 ft | 401 kts | 244° |
| 2026-04-26 17:00 | 41.24069 | -90.45047 | 38051 ft | 398 kts | 244° |
| 2026-04-26 17:01 | 41.21382 | -90.51417 | 38054 ft | 399 kts | 244° |
| 2026-04-26 17:01 | 41.18667 | -90.57837 | 38049 ft | 399 kts | 244° |
| 2026-04-26 17:02 | 41.15948 | -90.64256 | 38046 ft | 399 kts | 244° |
| 2026-04-26 17:02 | 41.13226 | -90.70668 | 38045 ft | 399 kts | 244° |
| 2026-04-26 17:03 | 41.10498 | -90.77079 | 38027 ft | 399 kts | 244° |
| 2026-04-26 17:03 | 41.07770 | -90.83478 | 38039 ft | 399 kts | 244° |
| 2026-04-26 17:04 | 41.05038 | -90.89872 | 38035 ft | 398 kts | 244° |
| 2026-04-26 17:04 | 41.02303 | -90.96259 | 38031 ft | 399 kts | 244° |
| 2026-04-26 17:05 | 40.99582 | -91.02600 | 38032 ft | 399 kts | 244° |
| 2026-04-26 17:05 | 40.96840 | -91.08978 | 38027 ft | 399 kts | 244° |
| 2026-04-26 17:06 | 40.94096 | -91.15346 | 38033 ft | 399 kts | 243° |
| 2026-04-26 17:06 | 40.91349 | -91.21706 | 38026 ft | 398 kts | 243° |
| 2026-04-26 17:07 | 40.88603 | -91.28053 | 38021 ft | 397 kts | 243° |
| 2026-04-26 17:07 | 40.85856 | -91.34388 | 38025 ft | 397 kts | 243° |
| 2026-04-26 17:08 | 40.83121 | -91.40685 | 38025 ft | 397 kts | 243° |
| 2026-04-26 17:08 | 40.80369 | -91.47010 | 38025 ft | 397 kts | 243° |
| 2026-04-26 17:09 | 40.78166 | -91.52312 | 38014 ft | 394 kts | 250° |
| 2026-04-26 17:09 | 40.75673 | -91.60086 | 38009 ft | 393 kts | 249° |
| 2026-04-26 17:10 | 40.73478 | -91.66650 | 38016 ft | 394 kts | 248° |
| 2026-04-26 17:10 | 40.71244 | -91.73284 | 38011 ft | 394 kts | 248° |
| 2026-04-26 17:11 | 40.69017 | -91.79878 | 38006 ft | 394 kts | 248° |
| 2026-04-26 17:11 | 40.66801 | -91.86424 | 38004 ft | 394 kts | 248° |
| 2026-04-26 17:12 | 40.63448 | -91.96301 | 38002 ft | 393 kts | 248° |
| 2026-04-26 17:13 | 40.60095 | -92.06141 | 37999 ft | 393 kts | 248° |
| 2026-04-26 17:14 | 40.56733 | -92.15975 | 37996 ft | 393 kts | 248° |
| 2026-04-26 17:14 | 40.53362 | -92.25798 | 37996 ft | 393 kts | 248° |
| 2026-04-26 17:15 | 40.49983 | -92.35613 | 37991 ft | 393 kts | 247° |
| 2026-04-26 17:16 | 40.47725 | -92.42152 | 37990 ft | 393 kts | 247° |
| 2026-04-26 17:16 | 40.45463 | -92.48690 | 37986 ft | 393 kts | 247° |
| 2026-04-26 17:17 | 40.43199 | -92.55217 | 37983 ft | 393 kts | 247° |
| 2026-04-26 17:17 | 40.40927 | -92.61753 | 37984 ft | 394 kts | 247° |
| 2026-04-26 17:18 | 40.38667 | -92.68245 | 37974 ft | 393 kts | 247° |
| 2026-04-26 17:18 | 40.35981 | -92.74479 | 38004 ft | 395 kts | 238° |
| 2026-04-26 17:19 | 40.31321 | -92.83427 | 37975 ft | 396 kts | 238° |
| 2026-04-26 17:19 | 40.28197 | -92.89385 | 37972 ft | 396 kts | 238° |
| 2026-04-26 17:20 | 40.26108 | -92.93359 | 37961 ft | 396 kts | 238° |
| 2026-04-26 17:20 | 40.21946 | -93.01267 | 37959 ft | 396 kts | 238° |
| 2026-04-26 17:21 | 40.18814 | -93.07203 | 37961 ft | 396 kts | 238° |
| 2026-04-26 17:21 | 40.15683 | -93.13126 | 37950 ft | 396 kts | 238° |
| 2026-04-26 17:22 | 40.12571 | -93.19003 | 37954 ft | 396 kts | 238° |
| 2026-04-26 17:22 | 40.09413 | -93.24956 | 37940 ft | 396 kts | 238° |
| 2026-04-26 17:23 | 40.06295 | -93.30821 | 37942 ft | 396 kts | 238° |
| 2026-04-26 17:23 | 40.03147 | -93.36731 | 37932 ft | 396 kts | 238° |
| 2026-04-26 17:24 | 40.00001 | -93.42628 | 37934 ft | 396 kts | 238° |
| 2026-04-26 17:24 | 39.96854 | -93.48515 | 37913 ft | 395 kts | 238° |
| 2026-04-26 17:25 | 39.93703 | -93.54398 | 37924 ft | 396 kts | 238° |
| 2026-04-26 17:25 | 39.90553 | -93.60270 | 37924 ft | 395 kts | 238° |
| 2026-04-26 17:26 | 39.87396 | -93.66143 | 37919 ft | 396 kts | 238° |
| 2026-04-26 17:26 | 39.84237 | -93.72008 | 37919 ft | 396 kts | 238° |
| 2026-04-26 17:27 | 39.81076 | -93.77867 | 37920 ft | 396 kts | 238° |
| 2026-04-26 17:27 | 39.77931 | -93.83686 | 37922 ft | 396 kts | 238° |
| 2026-04-26 17:28 | 39.74771 | -93.89520 | 37916 ft | 395 kts | 238° |
| 2026-04-26 17:28 | 39.71603 | -93.95358 | 37926 ft | 396 kts | 238° |
| 2026-04-26 17:29 | 39.69477 | -93.99272 | 37931 ft | 396 kts | 238° |
| 2026-04-26 17:29 | 39.65249 | -94.07039 | 37936 ft | 396 kts | 238° |
| 2026-04-26 17:30 | 39.62075 | -94.12856 | 37949 ft | 396 kts | 238° |
| 2026-04-26 17:30 | 39.58890 | -94.18683 | 37943 ft | 396 kts | 238° |
| 2026-04-26 17:31 | 39.55698 | -94.24514 | 37948 ft | 397 kts | 238° |
| 2026-04-26 17:31 | 39.52494 | -94.30354 | 37928 ft | 398 kts | 238° |
| 2026-04-26 17:32 | 39.49286 | -94.36191 | 37901 ft | 398 kts | 238° |
| 2026-04-26 17:32 | 39.46071 | -94.42030 | 37900 ft | 398 kts | 238° |
| 2026-04-26 17:33 | 39.42853 | -94.47865 | 37890 ft | 398 kts | 238° |
| 2026-04-26 17:34 | 39.38039 | -94.56574 | 37881 ft | 399 kts | 238° |
| 2026-04-26 17:34 | 39.34819 | -94.62388 | 37883 ft | 397 kts | 238° |
| 2026-04-26 17:35 | 39.31610 | -94.68173 | 37876 ft | 396 kts | 238° |
| 2026-04-26 17:35 | 39.28927 | -94.73018 | 37897 ft | 396 kts | 240° |
| 2026-04-26 17:36 | 39.26109 | -94.79080 | 37945 ft | 395 kts | 243° |
| 2026-04-26 17:36 | 39.23264 | -94.85132 | 37866 ft | 393 kts | 242° |
| 2026-04-26 17:37 | 39.20425 | -94.91133 | 37887 ft | 395 kts | 242° |
| 2026-04-26 17:37 | 39.17560 | -94.97171 | 37894 ft | 394 kts | 242° |
| 2026-04-26 17:38 | 39.13299 | -95.06130 | 37878 ft | 390 kts | 242° |
| 2026-04-26 17:38 | 39.10456 | -95.12096 | 37886 ft | 391 kts | 242° |
| 2026-04-26 17:39 | 39.07612 | -95.18049 | 37889 ft | 391 kts | 242° |
| 2026-04-26 17:39 | 39.04764 | -95.24002 | 37890 ft | 391 kts | 242° |
| 2026-04-26 17:40 | 39.02394 | -95.28947 | 37887 ft | 390 kts | 242° |
| 2026-04-26 17:40 | 39.00488 | -95.32918 | 37243 ft | 391 kts | 242° |
| 2026-04-26 17:40 | 38.99047 | -95.35918 | 36282 ft | 397 kts | 242° |
| 2026-04-26 17:41 | 38.97593 | -95.38941 | 35566 ft | 398 kts | 241° |
| 2026-04-26 17:41 | 38.96141 | -95.41955 | 34970 ft | 396 kts | 241° |
| 2026-04-26 17:41 | 38.94693 | -95.44961 | 34354 ft | 395 kts | 241° |
| 2026-04-26 17:41 | 38.93249 | -95.47956 | 33806 ft | 393 kts | 241° |
| 2026-04-26 17:42 | 38.91807 | -95.50944 | 33190 ft | 392 kts | 241° |
| 2026-04-26 17:42 | 38.90379 | -95.53899 | 32654 ft | 389 kts | 241° |
| 2026-04-26 17:42 | 38.88958 | -95.56837 | 32142 ft | 385 kts | 241° |
| 2026-04-26 17:42 | 38.87549 | -95.59747 | 31648 ft | 382 kts | 241° |
| 2026-04-26 17:43 | 38.86165 | -95.62603 | 31170 ft | 380 kts | 240° |
| 2026-04-26 17:43 | 38.84777 | -95.65466 | 30670 ft | 378 kts | 240° |
| 2026-04-26 17:43 | 38.83392 | -95.68320 | 30185 ft | 376 kts | 240° |
| 2026-04-26 17:43 | 38.82013 | -95.71159 | 29675 ft | 374 kts | 240° |
| 2026-04-26 17:44 | 38.80640 | -95.73981 | 29132 ft | 372 kts | 240° |
| 2026-04-26 17:44 | 38.79278 | -95.76781 | 28647 ft | 368 kts | 240° |
| 2026-04-26 17:44 | 38.77930 | -95.79548 | 28180 ft | 365 kts | 240° |
| 2026-04-26 17:44 | 38.76588 | -95.82301 | 27725 ft | 362 kts | 240° |
| 2026-04-26 17:45 | 38.75262 | -95.85019 | 27271 ft | 359 kts | 240° |
| 2026-04-26 17:45 | 38.73943 | -95.87720 | 26807 ft | 356 kts | 240° |
| 2026-04-26 17:45 | 38.72633 | -95.90399 | 26381 ft | 353 kts | 240° |
| 2026-04-26 17:45 | 38.71334 | -95.93054 | 25948 ft | 351 kts | 240° |
| 2026-04-26 17:46 | 38.70044 | -95.95690 | 25514 ft | 348 kts | 240° |
| 2026-04-26 17:46 | 38.68761 | -95.98309 | 25097 ft | 346 kts | 240° |
| 2026-04-26 17:46 | 38.67486 | -96.00909 | 24684 ft | 344 kts | 239° |
| 2026-04-26 17:46 | 38.66217 | -96.03494 | 24274 ft | 342 kts | 239° |
| 2026-04-26 17:47 | 38.64955 | -96.06064 | 23879 ft | 340 kts | 239° |
| 2026-04-26 17:47 | 38.64121 | -96.07761 | 23617 ft | 339 kts | 239° |
| 2026-04-26 17:47 | 38.62446 | -96.11168 | 23040 ft | 337 kts | 239° |
| 2026-04-26 17:47 | 38.61200 | -96.13698 | 22608 ft | 335 kts | 239° |
| 2026-04-26 17:48 | 38.59964 | -96.16206 | 22228 ft | 332 kts | 239° |
| 2026-04-26 17:48 | 38.58740 | -96.18689 | 21857 ft | 328 kts | 239° |
| 2026-04-26 17:48 | 38.57527 | -96.21147 | 21499 ft | 325 kts | 239° |
| 2026-04-26 17:48 | 38.56326 | -96.23579 | 21138 ft | 322 kts | 239° |
| 2026-04-26 17:49 | 38.55139 | -96.25982 | 20786 ft | 319 kts | 239° |
| 2026-04-26 17:49 | 38.53958 | -96.28369 | 20442 ft | 318 kts | 239° |
| 2026-04-26 17:49 | 38.52780 | -96.30749 | 20096 ft | 323 kts | 239° |
| 2026-04-26 17:49 | 38.51555 | -96.33223 | 19740 ft | 326 kts | 239° |
| 2026-04-26 17:50 | 38.50344 | -96.35666 | 19392 ft | 326 kts | 239° |
| 2026-04-26 17:50 | 38.49134 | -96.38105 | 19041 ft | 325 kts | 239° |
| 2026-04-26 17:50 | 38.47929 | -96.40533 | 18689 ft | 323 kts | 239° |
| 2026-04-26 17:50 | 38.46743 | -96.42920 | 18348 ft | 322 kts | 239° |
| 2026-04-26 17:51 | 38.45543 | -96.45333 | 17995 ft | 321 kts | 239° |
| 2026-04-26 17:51 | 38.44349 | -96.47734 | 17646 ft | 319 kts | 238° |
| 2026-04-26 17:51 | 38.43159 | -96.50122 | 17380 ft | 319 kts | 238° |
| 2026-04-26 17:51 | 38.41974 | -96.52503 | 17072 ft | 318 kts | 238° |
| 2026-04-26 17:52 | 38.40788 | -96.54879 | 16735 ft | 317 kts | 237° |
| 2026-04-26 17:52 | 38.39606 | -96.57248 | 16385 ft | 316 kts | 237° |
| 2026-04-26 17:52 | 38.38426 | -96.59612 | 16050 ft | 316 kts | 237° |
| 2026-04-26 17:52 | 38.37246 | -96.61972 | 15712 ft | 315 kts | 237° |
| 2026-04-26 17:53 | 38.36067 | -96.64330 | 15373 ft | 315 kts | 237° |
| 2026-04-26 17:53 | 38.34889 | -96.66684 | 15041 ft | 315 kts | 237° |
| 2026-04-26 17:53 | 38.33712 | -96.69035 | 14700 ft | 314 kts | 237° |
| 2026-04-26 17:54 | 38.31356 | -96.73733 | 14029 ft | 314 kts | 236° |
| 2026-04-26 17:54 | 38.30183 | -96.76071 | 13684 ft | 312 kts | 236° |
| 2026-04-26 17:54 | 38.29017 | -96.78393 | 13320 ft | 310 kts | 236° |
| 2026-04-26 17:54 | 38.27858 | -96.80700 | 12961 ft | 308 kts | 236° |
| 2026-04-26 17:55 | 38.26709 | -96.82986 | 12623 ft | 305 kts | 236° |
| 2026-04-26 17:55 | 38.25570 | -96.85252 | 12283 ft | 302 kts | 235° |
| 2026-04-26 17:55 | 38.24445 | -96.87487 | 11965 ft | 299 kts | 234° |
| 2026-04-26 17:55 | 38.23326 | -96.89708 | 11635 ft | 296 kts | 234° |
| 2026-04-26 17:56 | 38.22239 | -96.91865 | 11331 ft | 293 kts | 234° |
| 2026-04-26 17:56 | 38.20048 | -96.96216 | 10700 ft | 295 kts | 236° |
| 2026-04-26 17:57 | 38.18277 | -97.00811 | 10375 ft | 280 kts | 240° |
| 2026-04-26 17:57 | 38.17439 | -97.03002 | 10258 ft | 271 kts | 239° |
| 2026-04-26 17:57 | 38.16621 | -97.05118 | 10141 ft | 263 kts | 239° |
| 2026-04-26 17:57 | 38.15824 | -97.07168 | 9994 ft | 254 kts | 239° |
| 2026-04-26 17:58 | 38.13473 | -97.13152 | 9253 ft | 247 kts | 234° |
| 2026-04-26 17:59 | 38.10982 | -97.15711 | 8686 ft | 226 kts | 209° |
| 2026-04-26 17:59 | 38.09651 | -97.16725 | 8404 ft | 220 kts | 208° |
| 2026-04-26 17:59 | 38.08350 | -97.17693 | 8150 ft | 213 kts | 207° |
| 2026-04-26 17:59 | 38.07081 | -97.18624 | 7920 ft | 208 kts | 207° |
| 2026-04-26 18:00 | 38.05842 | -97.19523 | 7702 ft | 202 kts | 206° |
| 2026-04-26 18:00 | 38.04637 | -97.20391 | 7487 ft | 196 kts | 207° |
| 2026-04-26 18:00 | 38.03467 | -97.21233 | 7288 ft | 190 kts | 206° |
| 2026-04-26 18:00 | 38.02334 | -97.22045 | 7098 ft | 184 kts | 208° |
| 2026-04-26 18:01 | 38.01236 | -97.22837 | 6900 ft | 178 kts | 206° |
| 2026-04-26 18:01 | 38.00181 | -97.23590 | 6698 ft | 172 kts | 206° |
| 2026-04-26 18:01 | 37.99154 | -97.24321 | 6580 ft | 168 kts | 205° |
| 2026-04-26 18:01 | 37.98130 | -97.25049 | 6421 ft | 168 kts | 206° |
| 2026-04-26 18:02 | 37.97118 | -97.25770 | 6213 ft | 166 kts | 206° |
| 2026-04-26 18:02 | 37.96456 | -97.26240 | 6072 ft | 164 kts | 206° |
| 2026-04-26 18:02 | 37.95139 | -97.27180 | 5860 ft | 161 kts | 206° |
| 2026-04-26 18:02 | 37.94166 | -97.27871 | 5658 ft | 161 kts | 206° |
| 2026-04-26 18:03 | 37.93185 | -97.28571 | 5448 ft | 162 kts | 206° |
| 2026-04-26 18:03 | 37.92194 | -97.29287 | 5288 ft | 165 kts | 206° |
| 2026-04-26 18:03 | 37.91209 | -97.29987 | 5254 ft | 162 kts | 205° |
| 2026-04-26 18:03 | 37.90217 | -97.30679 | 5210 ft | 165 kts | 203° |
| 2026-04-26 18:04 | 37.89212 | -97.31376 | 5138 ft | 164 kts | 204° |
| 2026-04-26 18:04 | 37.88216 | -97.32083 | 5060 ft | 163 kts | 205° |
| 2026-04-26 18:04 | 37.87214 | -97.32731 | 4972 ft | 162 kts | 200° |
| 2026-04-26 18:05 | 37.85281 | -97.34200 | 4788 ft | 161 kts | 207° |
| 2026-04-26 18:05 | 37.84300 | -97.34877 | 4722 ft | 160 kts | 201° |
| 2026-04-26 18:05 | 37.83276 | -97.35441 | 4584 ft | 162 kts | 199° |
| 2026-04-26 18:05 | 37.82236 | -97.35962 | 4492 ft | 162 kts | 198° |
| 2026-04-26 18:06 | 37.81187 | -97.36462 | 4348 ft | 162 kts | 199° |
| 2026-04-26 18:06 | 37.80138 | -97.36958 | 4106 ft | 160 kts | 199° |
| 2026-04-26 18:06 | 37.79129 | -97.37391 | 3846 ft | 147 kts | 195° |
| 2026-04-26 18:06 | 37.78193 | -97.37835 | 3677 ft | 135 kts | 198° |
| 2026-04-26 18:07 | 37.77316 | -97.38257 | 3557 ft | 137 kts | 197° |
| 2026-04-26 18:07 | 37.76406 | -97.38678 | 3493 ft | 140 kts | 199° |
| 2026-04-26 18:07 | 37.75509 | -97.39105 | 3396 ft | 137 kts | 195° |
| 2026-04-26 18:07 | 37.74908 | -97.39372 | 3250 ft | 139 kts | 197° |
| 2026-04-26 18:08 | 37.73690 | -97.39925 | 2995 ft | 139 kts | 197° |
| 2026-04-26 18:08 | 37.72784 | -97.40334 | 2903 ft | 139 kts | 195° |
| 2026-04-26 18:08 | 37.71773 | -97.40813 | 2773 ft | 159 kts | 197° |
| 2026-04-26 18:08 | 37.70720 | -97.41300 | 2616 ft | 164 kts | 197° |
| 2026-04-26 18:09 | 37.69655 | -97.41792 | 2378 ft | 160 kts | 197° |
| 2026-04-26 18:09 | 37.68630 | -97.42249 | 2032 ft | 152 kts | 195° |
| 2026-04-26 18:09 | 37.67609 | -97.42721 | 1672 ft | 167 kts | 196° |
| 2026-04-26 18:09 | 37.66534 | -97.43211 | 1451 ft | 158 kts | 196° |
| 2026-04-26 18:10 | 37.65561 | -97.43658 | 1334 ft | 133 kts | 195° |
| 2026-04-26 18:10 | 37.64917 | -97.43953 | 1327 ft | 66 kts | 200° |
| 2026-04-26 18:10 | 37.64612 | -97.44092 | 1333 ft | 22 kts | 199° |
| 2026-04-26 18:10 | 37.64515 | -97.44023 | 1333 ft | 19 kts | 83° |
| 2026-04-26 18:11 | 37.64606 | -97.43948 | 1331 ft | 16 kts | 22° |
| 2026-04-26 18:11 | 37.64716 | -97.43898 | 1333 ft | 17 kts | 19° |
| 2026-04-26 18:11 | 37.64825 | -97.43847 | 1330 ft | 13 kts | 24° |
| 2026-04-26 18:11 | 37.64873 | -97.43752 | 1331 ft | 14 kts | 85° |
| 2026-04-26 18:12 | 37.64879 | -97.43638 | 1333 ft | 12 kts | 85° |
| 2026-04-26 18:12 | 37.64885 | -97.43557 | 1333 ft | 9 kts | 84° |
| 2026-04-26 18:12 | 37.64892 | -97.43467 | 1335 ft | 11 kts | 86° |
| 2026-04-26 18:12 | 37.64898 | -97.43364 | 1334 ft | 12 kts | 85° |
| 2026-04-26 18:13 | 37.64908 | -97.43265 | 1335 ft | 10 kts | 81° |
| 2026-04-26 18:13 | 37.64950 | -97.43199 | 1336 ft | 10 kts | 25° |
| 2026-04-26 18:13 | 37.65028 | -97.43184 | 1335 ft | 13 kts | 344° |
| 2026-04-26 18:13 | 37.65066 | -97.43208 | 1335 ft | 9 kts | 330° |
| 2026-04-26 18:14 | 37.65150 | -97.43270 | 1335 ft | 12 kts | 332° |
| 2026-04-26 18:14 | 37.65213 | -97.43307 | 1335 ft | 9 kts | 355° |
| 2026-04-26 18:14 | 37.65243 | -97.43258 | 1335 ft | 8 kts | 116° |
| 2026-04-26 18:14 | 37.65192 | -97.43221 | 1334 ft | 9 kts | 152° |
| 2026-04-26 18:15 | 37.65172 | -97.43207 | 1333 ft | 3 kts | 150° |
| 2026-04-26 18:15 | 37.65156 | -97.43186 | 1334 ft | 3 kts | 111° |
| 2026-04-26 18:15 | 37.65162 | -97.43155 | 1333 ft | 3 kts | 59° |
| 2026-04-26 18:15 | 37.65169 | -97.43143 | 1333 ft | 0 kts | 57° |